Time;durP1;ratioP1;P1;durP2;ratioP2;P2;SDS_P1;SDS_P2;PMS_P1;PMS_P2;Temp;Humidity;BMP_temperature;BMP_pressure;BME280_temperature;BME280_humidity;BME280_pressure;Samples;Min_cycle;Max_cycle;Signal;HPM_P1;HPM_P2
2022/10/18 00:01:05;;;;;;;14.70;7.82;;;16.20;99.90;;;;;;4664208;28;10000055;-74
2022/10/18 00:03:31;;;;;;;19.17;9.10;;;16.30;99.90;;;;;;5012142;28;20123;-74
2022/10/18 00:05:57;;;;;;;19.33;9.00;;;16.30;99.90;;;;;;5016832;28;20026;-74
2022/10/18 00:08:23;;;;;;;17.00;9.13;;;16.30;99.90;;;;;;5017184;28;20574;-74
2022/10/18 00:10:49;;;;;;;13.38;9.25;;;16.30;99.90;;;;;;5020856;28;20045;-74
2022/10/18 00:13:15;;;;;;;18.67;10.10;;;16.20;99.90;;;;;;5022827;28;20056;-74
2022/10/18 00:15:53;;;;;;;19.17;10.60;;;16.20;99.90;;;;;;5017562;28;20493;-74
2022/10/18 00:18:19;;;;;;;18.40;10.30;;;16.20;99.90;;;;;;5017765;28;20730;-74
2022/10/18 00:20:54;;;;;;;14.30;10.30;;;16.20;99.90;;;;;;5016812;28;20029;-74
2022/10/18 00:23:20;;;;;;;21.85;10.88;;;16.20;99.90;;;;;;5024312;28;20461;-74
2022/10/18 00:25:45;;;;;;;20.35;11.30;;;16.20;99.90;;;;;;5016202;28;20029;-74
2022/10/18 00:28:11;;;;;;;20.70;11.77;;;16.20;99.90;;;;;;5018041;28;20087;-74
2022/10/18 00:30:36;;;;;;;22.25;10.95;;;16.20;99.90;;;;;;5022072;28;20505;-74
2022/10/18 00:33:02;;;;;;;17.20;10.80;;;16.20;99.90;;;;;;5024718;28;20116;-75
2022/10/18 00:35:28;;;;;;;19.38;9.43;;;16.20;99.90;;;;;;5020547;28;20411;-76
2022/10/18 00:37:53;;;;;;;17.92;10.05;;;16.20;99.90;;;;;;5023638;28;20025;-77
2022/10/18 00:40:19;;;;;;;15.48;10.05;;;16.20;99.90;;;;;;5019566;28;20028;-77
2022/10/18 00:42:44;;;;;;;15.35;10.48;;;16.20;99.90;;;;;;5030560;28;20046;-77
2022/10/18 00:45:19;;;;;;;14.90;10.48;;;16.10;99.90;;;;;;5027118;28;20253;-76
2022/10/18 00:47:47;;;;;;;21.98;11.10;;;16.10;99.90;;;;;;5027207;28;20021;-76
2022/10/18 00:50:13;;;;;;;19.55;11.05;;;16.10;99.90;;;;;;5028292;28;20025;-76
2022/10/18 00:52:44;;;;;;;16.75;11.15;;;16.10;99.90;;;;;;5024570;28;20358;-76
2022/10/18 00:55:10;;;;;;;13.48;9.50;;;16.00;99.90;;;;;;5017859;28;20036;-76
2022/10/18 00:57:39;;;;;;;16.02;9.18;;;16.00;99.90;;;;;;5022304;28;20025;-76
2022/10/18 01:00:08;;;;;;;15.52;9.02;;;16.00;99.90;;;;;;5020068;28;20037;-76
2022/10/18 01:02:35;;;;;;;13.30;8.60;;;16.00;99.90;;;;;;5013993;28;20915;-76
2022/10/18 01:05:01;;;;;;;12.38;8.20;;;16.00;99.90;;;;;;5018130;28;20112;-76
2022/10/18 01:07:42;;;;;;;17.55;9.18;;;15.90;99.90;;;;;;5023838;28;20028;-76
2022/10/18 01:10:22;;;;;;;13.90;8.35;;;15.90;99.90;;;;;;5032420;28;20119;-75
2022/10/18 01:13:00;;;;;;;12.52;8.43;;;15.90;99.90;;;;;;5026865;28;20587;-75
2022/10/18 01:15:28;;;;;;;10.88;7.80;;;15.90;99.90;;;;;;5014751;28;20025;-75
2022/10/18 01:18:12;;;;;;;13.00;8.20;;;15.90;99.90;;;;;;5017733;28;20115;-76
2022/10/18 01:20:56;;;;;;;15.88;8.55;;;15.90;99.90;;;;;;5033480;28;20505;-75
2022/10/18 01:23:46;;;;;;;16.13;8.10;;;15.90;99.90;;;;;;5015650;28;20029;-75
2022/10/18 01:26:24;;;;;;;16.50;8.50;;;15.90;99.90;;;;;;5025749;28;20107;-75
2022/10/18 01:29:00;;;;;;;16.95;11.18;;;15.90;99.90;;;;;;5019684;28;20045;-75
2022/10/18 01:31:38;;;;;;;23.95;14.60;;;15.90;99.90;;;;;;5028757;28;20060;-75
2022/10/18 01:34:06;;;;;;;25.20;15.55;;;15.90;99.90;;;;;;5026415;28;20124;-75
2022/10/18 01:36:39;;;;;;;28.75;17.27;;;15.90;99.90;;;;;;5016957;28;20030;-75
2022/10/18 01:39:10;;;;;;;25.95;17.83;;;15.90;99.90;;;;;;5016097;28;20036;-75
2022/10/18 01:41:39;;;;;;;24.70;17.40;;;15.90;99.90;;;;;;5032010;28;20052;-75
2022/10/18 01:44:08;;;;;;;28.88;18.13;;;15.90;99.90;;;;;;5031562;28;20021;-75
2022/10/18 01:46:35;;;;;;;27.10;18.00;;;15.90;99.90;;;;;;5030950;28;20029;-75
2022/10/18 01:49:00;;;;;;;26.98;18.08;;;15.90;99.90;;;;;;5020128;28;20113;-75
2022/10/18 01:51:29;;;;;;;27.45;16.35;;;15.90;99.90;;;;;;5017910;28;20113;-75
2022/10/18 01:53:55;;;;;;;24.80;17.50;;;15.90;99.90;;;;;;5027305;28;20021;-75
2022/10/18 01:56:49;;;;;;;26.08;17.83;;;15.90;99.90;;;;;;5031396;28;20017;-75
2022/10/18 01:59:38;;;;;;;23.27;16.25;;;15.90;99.90;;;;;;5026248;28;20032;-75
2022/10/18 02:02:41;;;;;;;22.48;16.55;;;15.80;99.90;;;;;;5021876;28;20508;-75
2022/10/18 02:05:29;;;;;;;22.80;14.90;;;15.80;99.90;;;;;;5031735;28;20693;-75
2022/10/18 02:08:16;;;;;;;21.35;14.45;;;15.80;99.90;;;;;;5029387;28;20391;-75
2022/10/18 02:10:59;;;;;;;19.67;14.32;;;15.70;99.90;;;;;;5025752;28;20036;-75
2022/10/18 02:13:30;;;;;;;19.33;12.85;;;15.70;99.90;;;;;;5033758;28;20032;-75
2022/10/18 02:16:01;;;;;;;20.90;13.48;;;15.70;99.90;;;;;;5027934;28;20029;-75
2022/10/18 02:18:35;;;;;;;20.05;12.80;;;15.70;99.90;;;;;;5030802;28;20111;-75
2022/10/18 02:21:02;;;;;;;;;;;15.70;99.90;;;;;;5028688;28;20033;-75
2022/10/18 02:23:28;;;;;;;20.00;13.23;;;15.70;99.90;;;;;;5017925;28;19919;-75
2022/10/18 02:25:54;;;;;;;21.52;12.15;;;15.70;99.90;;;;;;5020453;28;20032;-75
2022/10/18 02:28:21;;;;;;;18.65;12.70;;;15.70;99.90;;;;;;5023696;28;20013;-75
2022/10/18 02:30:57;;;;;;;23.35;13.02;;;15.70;99.90;;;;;;5017629;28;20217;-74
2022/10/18 02:33:38;;;;;;;20.90;12.63;;;15.70;99.90;;;;;;5028442;28;20051;-75
2022/10/18 02:36:17;;;;;;;15.45;11.73;;;15.70;99.90;;;;;;5030483;28;20104;-75
2022/10/18 02:38:45;;;;;;;16.17;10.43;;;15.70;99.90;;;;;;5028861;28;20248;-75
2022/10/18 02:41:10;;;;;;;15.38;10.15;;;15.70;99.90;;;;;;5027631;28;20028;-75
2022/10/18 02:43:36;;;;;;;15.25;9.23;;;15.70;99.90;;;;;;5035847;28;20293;-74
2022/10/18 02:46:02;;;;;;;10.77;7.75;;;15.60;99.90;;;;;;5028136;28;20024;-75
2022/10/18 02:48:28;;;;;;;11.35;7.53;;;15.60;99.90;;;;;;5040346;28;20371;-74
2022/10/18 02:50:53;;;;;;;12.52;5.90;;;15.60;99.90;;;;;;5025282;28;20087;-75
2022/10/18 02:53:19;;;;;;;7.72;5.00;;;15.50;99.90;;;;;;5033515;28;20086;-75
2022/10/18 02:55:45;;;;;;;8.95;4.43;;;15.50;99.90;;;;;;5029815;28;20500;-75
2022/10/18 02:58:10;;;;;;;5.70;3.97;;;15.50;99.90;;;;;;5027691;28;20024;-74
2022/10/18 03:00:36;;;;;;;4.47;3.60;;;15.50;99.90;;;;;;5029012;28;20139;-74
2022/10/18 03:03:01;;;;;;;5.43;3.22;;;15.40;99.90;;;;;;5027390;28;20025;-75
2022/10/18 03:05:27;;;;;;;4.78;3.40;;;15.40;99.90;;;;;;5028530;28;20041;-75
2022/10/18 03:07:56;;;;;;;5.97;3.42;;;15.40;99.90;;;;;;5025884;28;20083;-75
2022/10/18 03:10:21;;;;;;;4.82;3.20;;;15.40;99.90;;;;;;5031161;28;20033;-75
2022/10/18 03:12:47;;;;;;;5.53;3.25;;;15.30;99.90;;;;;;5029308;28;20042;-75
2022/10/18 03:15:12;;;;;;;5.15;3.45;;;15.30;99.90;;;;;;5027682;28;20473;-74
2022/10/18 03:17:38;;;;;;;6.93;3.63;;;15.30;99.90;;;;;;5027138;28;20037;-75
2022/10/18 03:20:04;;;;;;;5.88;4.00;;;15.30;99.90;;;;;;5029632;28;20148;-75
2022/10/18 03:22:30;;;;;;;7.55;3.92;;;15.30;99.90;;;;;;5029241;28;20033;-75
2022/10/18 03:24:55;;;;;;;6.18;4.00;;;15.30;99.90;;;;;;5029920;28;20021;-75
2022/10/18 03:27:21;;;;;;;7.72;3.88;;;15.30;99.90;;;;;;5025540;28;20484;-75
2022/10/18 03:29:46;;;;;;;5.68;4.22;;;15.30;99.90;;;;;;5026739;28;20096;-75
2022/10/18 03:32:12;;;;;;;9.50;4.95;;;15.30;99.90;;;;;;5024994;28;20021;-75
2022/10/18 03:34:37;;;;;;;8.73;5.60;;;15.30;99.90;;;;;;5027880;28;20024;-75
2022/10/18 03:37:03;;;;;;;7.20;5.90;;;15.30;99.90;;;;;;5023715;28;20024;-75
2022/10/18 03:39:29;;;;;;;7.32;5.32;;;15.30;99.90;;;;;;5034361;28;20026;-75
2022/10/18 03:41:54;;;;;;;6.63;5.05;;;15.30;99.90;;;;;;5028748;28;20124;-75
2022/10/18 03:44:20;;;;;;;10.75;5.20;;;15.30;99.90;;;;;;5034094;28;20029;-75
2022/10/18 03:46:45;;;;;;;6.30;4.95;;;15.30;99.90;;;;;;5034409;28;20025;-74
2022/10/18 03:49:11;;;;;;;5.80;4.60;;;15.30;99.90;;;;;;5025686;28;20033;-75
2022/10/18 03:51:37;;;;;;;6.50;4.55;;;15.30;99.90;;;;;;5025514;28;20109;-75
2022/10/18 03:54:02;;;;;;;7.68;5.10;;;15.30;99.90;;;;;;5031931;28;20029;-75
2022/10/18 03:56:28;;;;;;;8.50;5.03;;;15.20;99.90;;;;;;5030332;28;20029;-76
2022/10/18 03:58:53;;;;;;;8.65;5.07;;;15.20;99.90;;;;;;5030058;28;20478;-75
2022/10/18 04:01:19;;;;;;;6.38;4.65;;;15.20;99.90;;;;;;5028644;28;20030;-76
2022/10/18 04:03:45;;;;;;;6.43;5.38;;;15.20;99.90;;;;;;5019737;28;20029;-75
2022/10/18 04:06:10;;;;;;;6.75;5.10;;;15.20;99.90;;;;;;5027361;28;20444;-76
2022/10/18 04:08:36;;;;;;;6.85;5.38;;;15.20;99.90;;;;;;5028230;28;20029;-75
2022/10/18 04:11:09;;;;;;;8.68;5.97;;;15.20;99.90;;;;;;5034181;28;20141;-76
2022/10/18 04:13:35;;;;;;;;;;;15.20;99.90;;;;;;5023408;28;20040;-75
2022/10/18 04:16:01;;;;;;;8.50;5.18;;;15.20;99.90;;;;;;5032722;28;19912;-75
2022/10/18 04:18:26;;;;;;;8.23;5.75;;;15.10;99.90;;;;;;5028570;28;20318;-75
2022/10/18 04:20:52;;;;;;;8.68;5.88;;;15.10;99.90;;;;;;5029104;28;20090;-75
2022/10/18 04:23:17;;;;;;;9.00;5.60;;;15.10;99.90;;;;;;5022742;28;20658;-75
2022/10/18 04:25:43;;;;;;;9.93;5.55;;;15.00;99.90;;;;;;5026091;28;20049;-76
2022/10/18 04:28:08;;;;;;;8.05;5.90;;;15.00;99.90;;;;;;5032841;28;20048;-76
2022/10/18 04:30:34;;;;;;;8.38;6.00;;;15.00;99.90;;;;;;5037009;28;20052;-77
2022/10/18 04:33:00;;;;;;;11.13;5.80;;;14.90;99.90;;;;;;5024406;28;20041;-77
2022/10/18 04:35:27;;;;;;;9.13;6.30;;;14.90;99.90;;;;;;5032681;28;20028;-77
2022/10/18 04:37:53;;;;;;;8.43;6.78;;;14.90;99.90;;;;;;5027267;28;20383;-77
2022/10/18 04:40:19;;;;;;;9.15;7.43;;;14.90;99.90;;;;;;5027881;28;20025;-77
2022/10/18 04:42:45;;;;;;;9.02;7.38;;;14.90;99.90;;;;;;5033316;28;20087;-77
2022/10/18 04:45:10;;;;;;;9.43;7.35;;;14.90;99.90;;;;;;5044597;28;20029;-76
2022/10/18 04:47:36;;;;;;;11.50;7.85;;;14.90;99.90;;;;;;5026713;28;20393;-77
2022/10/18 04:50:02;;;;;;;11.02;7.05;;;14.90;99.90;;;;;;5027577;28;20037;-77
2022/10/18 04:52:28;;;;;;;13.32;8.00;;;14.90;99.90;;;;;;5025459;28;20329;-76
2022/10/18 04:54:53;;;;;;;9.98;7.80;;;14.90;99.90;;;;;;5030202;28;20021;-77
2022/10/18 04:57:19;;;;;;;9.88;7.78;;;15.00;99.90;;;;;;5026914;28;20037;-77
2022/10/18 04:59:45;;;;;;;10.70;7.60;;;14.90;99.90;;;;;;5028417;28;20133;-77
2022/10/18 05:02:10;;;;;;;12.77;7.95;;;14.90;99.90;;;;;;5023047;28;20061;-77
2022/10/18 05:04:36;;;;;;;13.43;8.43;;;14.90;99.90;;;;;;5027222;28;20123;-77
2022/10/18 05:07:01;;;;;;;13.10;9.32;;;14.90;99.90;;;;;;5028025;28;20371;-77
2022/10/18 05:09:27;;;;;;;12.60;8.35;;;14.90;99.90;;;;;;5029400;28;20026;-77
2022/10/18 05:11:53;;;;;;;12.02;8.90;;;14.90;99.90;;;;;;5027480;28;20072;-76
2022/10/18 05:14:18;;;;;;;10.18;7.57;;;14.90;99.90;;;;;;5031395;28;20037;-76
2022/10/18 05:16:44;;;;;;;9.88;7.60;;;14.80;99.90;;;;;;5043224;28;20040;-77
2022/10/18 05:19:09;;;;;;;9.43;7.43;;;14.80;99.90;;;;;;5042517;28;20295;-77
2022/10/18 05:21:35;;;;;;;10.63;7.50;;;14.80;99.90;;;;;;5030098;28;20110;-77
2022/10/18 05:24:01;;;;;;;11.13;9.07;;;14.80;99.90;;;;;;5027227;28;20545;-77
2022/10/18 05:26:26;;;;;;;10.10;8.30;;;14.80;99.90;;;;;;5028953;28;20032;-77
2022/10/18 05:28:52;;;;;;;14.35;9.48;;;14.80;99.90;;;;;;5034803;28;20231;-77
2022/10/18 05:31:18;;;;;;;13.07;9.10;;;14.80;99.90;;;;;;5036431;28;20080;-77
2022/10/18 05:33:43;;;;;;;18.33;11.50;;;14.80;99.90;;;;;;5027835;28;20036;-76
2022/10/18 05:36:09;;;;;;;18.50;11.98;;;14.80;99.90;;;;;;5039627;28;20036;-76
2022/10/18 05:38:38;;;;;;;18.50;12.50;;;14.80;99.90;;;;;;5032641;28;20029;-77
2022/10/18 05:41:04;;;;;;;20.25;13.13;;;14.80;99.90;;;;;;5031678;28;20378;-77
2022/10/18 05:43:30;;;;;;;20.65;12.65;;;14.80;99.90;;;;;;5031598;28;20037;-77
2022/10/18 05:45:55;;;;;;;19.42;12.98;;;14.80;99.90;;;;;;5037019;28;20032;-77
2022/10/18 05:48:21;;;;;;;18.20;13.52;;;14.80;99.90;;;;;;5030319;28;20033;-77
2022/10/18 05:50:47;;;;;;;17.60;12.45;;;14.80;99.90;;;;;;5030263;28;20105;-77
2022/10/18 05:53:13;;;;;;;18.83;12.57;;;14.80;99.90;;;;;;5038643;28;20406;-77
2022/10/18 05:55:38;;;;;;;22.40;13.85;;;14.80;99.90;;;;;;5036278;28;20091;-77
2022/10/18 05:58:04;;;;;;;17.98;12.80;;;14.80;99.90;;;;;;5034131;28;20032;-77
2022/10/18 06:00:30;;;;;;;21.27;14.27;;;14.80;99.90;;;;;;5036533;28;20042;-77
2022/10/18 06:02:55;;;;;;;20.25;13.57;;;14.80;99.90;;;;;;5030811;28;20061;-78
2022/10/18 06:05:21;;;;;;;22.00;14.82;;;14.70;99.90;;;;;;5025339;28;20048;-78
2022/10/18 06:07:47;;;;;;;25.13;15.48;;;14.70;99.90;;;;;;5027146;28;20032;-78
2022/10/18 06:10:12;;;;;;;25.80;15.95;;;14.70;99.90;;;;;;5030328;28;20037;-77
2022/10/18 06:12:38;;;;;;;25.20;15.85;;;14.70;99.90;;;;;;5030169;28;20509;-77
2022/10/18 06:15:04;;;;;;;21.70;14.68;;;14.70;99.90;;;;;;5027991;28;20733;-77
2022/10/18 06:17:29;;;;;;;21.65;14.10;;;14.70;99.90;;;;;;5031567;28;20033;-77
2022/10/18 06:19:55;;;;;;;19.45;12.98;;;14.70;99.90;;;;;;5026449;28;24005;-76
2022/10/18 06:22:21;;;;;;;18.90;13.18;;;14.70;99.90;;;;;;5024219;28;20033;-76
2022/10/18 06:24:47;;;;;;;16.90;12.20;;;14.70;99.90;;;;;;5032357;28;20191;-76
2022/10/18 06:27:12;;;;;;;18.02;13.00;;;14.70;99.90;;;;;;5034631;28;20699;-76
2022/10/18 06:29:39;;;;;;;16.27;12.40;;;14.70;99.90;;;;;;5039730;28;20409;-76
2022/10/18 06:32:06;;;;;;;16.60;11.60;;;14.70;99.90;;;;;;5030922;28;20064;-76
2022/10/18 06:34:32;;;;;;;12.25;9.45;;;14.70;99.90;;;;;;5032099;28;20037;-75
2022/10/18 06:36:58;;;;;;;12.63;9.43;;;14.70;99.90;;;;;;5031188;28;20116;-75
2022/10/18 06:39:24;;;;;;;12.85;9.85;;;14.70;99.90;;;;;;5036778;28;20144;-75
2022/10/18 06:41:50;;;;;;;13.20;9.90;;;14.80;99.90;;;;;;5027597;28;20029;-76
2022/10/18 06:44:16;;;;;;;12.00;9.48;;;14.80;99.90;;;;;;5040122;28;20036;-76
2022/10/18 06:46:44;;;;;;;14.65;9.30;;;14.80;99.90;;;;;;5027130;28;20040;-76
2022/10/18 06:49:10;;;;;;;11.55;9.25;;;14.80;99.90;;;;;;5033376;28;20052;-76
2022/10/18 06:51:36;;;;;;;12.95;9.38;;;14.90;99.90;;;;;;5030314;28;20247;-76
2022/10/18 06:54:02;;;;;;;11.80;9.70;;;14.90;99.90;;;;;;5033574;28;20041;-76
2022/10/18 06:56:28;;;;;;;11.93;9.43;;;14.90;99.90;;;;;;5032776;28;20528;-75
2022/10/18 06:58:54;;;;;;;11.98;9.52;;;14.90;99.90;;;;;;5027931;28;20057;-76
2022/10/18 07:01:20;;;;;;;14.00;9.35;;;14.90;99.90;;;;;;5028359;28;20047;-76
2022/10/18 07:03:48;;;;;;;11.75;9.25;;;14.90;99.90;;;;;;5026098;28;20043;-76
2022/10/18 07:06:16;;;;;;;12.50;9.48;;;14.90;99.90;;;;;;5029062;28;20437;-75
2022/10/18 07:08:43;;;;;;;14.00;9.90;;;14.90;99.90;;;;;;5036012;28;20091;-76
2022/10/18 07:11:18;;;;;;;15.38;10.98;;;14.90;99.90;;;;;;5028841;28;20033;-76
2022/10/18 07:13:43;;;;;;;12.82;10.27;;;15.00;99.90;;;;;;5034760;28;20168;-76
2022/10/18 07:16:12;;;;;;;13.73;10.23;;;15.00;99.90;;;;;;5043595;28;20025;-76
2022/10/18 07:18:40;;;;;;;13.27;10.70;;;15.00;99.90;;;;;;5045205;28;20032;-76
2022/10/18 07:21:12;;;;;;;13.75;11.00;;;15.00;99.90;;;;;;5037780;28;20148;-76
2022/10/18 07:23:40;;;;;;;12.10;9.98;;;15.00;99.90;;;;;;5035571;28;20026;-76
2022/10/18 07:26:18;;;;;;;13.50;10.27;;;15.00;99.90;;;;;;5036347;28;20596;-76
2022/10/18 07:28:46;;;;;;;12.50;9.70;;;15.00;99.90;;;;;;5030366;28;20498;-76
2022/10/18 07:31:12;;;;;;;13.95;9.88;;;15.00;99.90;;;;;;5032568;28;20030;-76
2022/10/18 07:33:38;;;;;;;11.80;9.70;;;15.00;99.90;;;;;;5034346;28;20091;-76
2022/10/18 07:36:06;;;;;;;13.90;9.32;;;15.00;99.90;;;;;;5041736;28;20029;-76
2022/10/18 07:38:32;;;;;;;12.40;9.73;;;15.00;99.90;;;;;;5028903;28;20095;-76
2022/10/18 07:40:59;;;;;;;14.52;9.23;;;15.00;99.90;;;;;;5037557;28;20045;-76
2022/10/18 07:43:25;;;;;;;11.35;9.27;;;15.10;99.90;;;;;;5025067;28;20045;-76
2022/10/18 07:45:56;;;;;;;9.35;7.97;;;15.10;99.90;;;;;;5033150;28;20032;-76
2022/10/18 07:48:22;;;;;;;9.30;7.63;;;15.10;99.90;;;;;;5030528;28;20029;-76
2022/10/18 07:50:47;;;;;;;9.00;7.75;;;15.10;99.90;;;;;;5033718;28;20102;-76
2022/10/18 07:53:13;;;;;;;8.02;7.13;;;15.10;99.90;;;;;;5030058;28;20128;-76
2022/10/18 07:55:39;;;;;;;9.25;7.45;;;15.10;99.90;;;;;;5034729;28;20061;-76
2022/10/18 07:58:05;;;;;;;9.02;7.57;;;15.10;99.90;;;;;;5036866;28;20120;-76
2022/10/18 08:00:31;;;;;;;10.65;7.85;;;15.10;99.90;;;;;;5040240;28;20040;-76
2022/10/18 08:02:57;;;;;;;8.82;7.60;;;15.20;99.90;;;;;;5029614;28;20037;-76
2022/10/18 08:05:23;;;;;;;9.60;7.75;;;15.20;99.90;;;;;;5027076;28;20033;-76
2022/10/18 08:07:49;;;;;;;8.95;7.53;;;15.20;99.90;;;;;;5026889;28;20059;-76
2022/10/18 08:10:15;;;;;;;9.90;7.55;;;15.20;99.90;;;;;;5030251;28;20474;-76
2022/10/18 08:12:40;;;;;;;9.35;8.23;;;15.20;99.90;;;;;;5026549;28;20078;-76
2022/10/18 08:15:06;;;;;;;10.65;7.60;;;15.20;99.90;;;;;;5023787;28;20343;-76
2022/10/18 08:17:32;;;;;;;11.10;8.32;;;15.20;99.90;;;;;;5023441;28;20036;-76
2022/10/18 08:19:58;;;;;;;8.73;7.65;;;15.30;99.90;;;;;;5027519;28;20033;-76
2022/10/18 08:22:24;;;;;;;10.30;8.55;;;15.30;99.90;;;;;;5026220;28;20174;-76
2022/10/18 08:24:49;;;;;;;9.75;7.78;;;15.30;99.90;;;;;;5031549;28;20037;-76
2022/10/18 08:27:16;;;;;;;9.07;7.43;;;15.30;99.90;;;;;;5036757;28;20025;-76
2022/10/18 08:29:41;;;;;;;10.73;7.75;;;15.30;99.90;;;;;;5028861;28;20053;-76
2022/10/18 08:32:08;;;;;;;12.45;7.72;;;15.30;99.90;;;;;;5032438;28;20029;-76
2022/10/18 08:34:34;;;;;;;9.02;7.90;;;15.30;99.90;;;;;;5030647;28;20496;-77
2022/10/18 08:37:00;;;;;;;10.18;7.80;;;15.30;99.90;;;;;;5027497;28;20033;-76
2022/10/18 08:39:26;;;;;;;10.27;7.60;;;15.30;99.90;;;;;;5025894;28;20033;-77
2022/10/18 08:42:34;;;;;;;9.88;8.10;;;15.30;99.90;;;;;;5031502;28;20048;-76
2022/10/18 08:45:00;;;;;;;9.10;7.80;;;15.30;99.90;;;;;;5038030;28;20189;-75
2022/10/18 08:47:44;;;;;;;9.63;7.53;;;15.20;99.90;;;;;;5024829;28;20525;-77
2022/10/18 08:50:17;;;;;;;10.77;7.63;;;15.30;99.90;;;;;;5026145;28;20373;-76
2022/10/18 08:52:57;;;;;;;7.95;7.15;;;15.30;99.90;;;;;;5037679;28;20025;-76
2022/10/18 08:55:37;;;;;;;9.68;7.35;;;15.30;99.90;;;;;;5036907;28;20025;-76
2022/10/18 08:58:25;;;;;;;8.38;7.22;;;15.30;99.90;;;;;;5040287;28;20032;-76
2022/10/18 09:01:11;;;;;;;10.02;7.10;;;15.30;99.90;;;;;;5029658;28;20033;-77
2022/10/18 09:03:58;;;;;;;7.72;6.82;;;15.30;99.90;;;;;;5039582;28;20021;-76
2022/10/18 09:06:48;;;;;;;8.30;6.40;;;15.30;99.90;;;;;;5036718;28;20036;-77
2022/10/18 09:09:44;;;;;;;7.82;6.55;;;15.30;99.90;;;;;;5023431;28;20091;-75
2022/10/18 09:12:34;;;;;;;8.27;6.50;;;15.30;99.90;;;;;;5027672;28;20029;-77
2022/10/18 09:15:05;;;;;;;9.07;6.57;;;15.30;99.90;;;;;;5031382;28;20025;-77
2022/10/18 09:17:39;;;;;;;7.90;5.68;;;15.40;99.90;;;;;;5031707;28;20037;-76
2022/10/18 09:20:20;;;;;;;8.00;6.50;;;15.40;99.90;;;;;;5032362;28;20029;-76
2022/10/18 09:22:58;;;;;;;7.50;6.72;;;15.40;99.90;;;;;;5033122;28;20029;-76
2022/10/18 09:25:32;;;;;;;9.77;6.90;;;15.50;99.90;;;;;;5035075;28;20021;-77
2022/10/18 09:28:04;;;;;;;7.45;6.63;;;15.50;99.90;;;;;;5038294;28;20024;-77
2022/10/18 09:30:58;;;;;;;9.43;7.40;;;15.50;99.90;;;;;;5044585;28;20052;-77
2022/10/18 09:33:32;;;;;;;8.63;7.10;;;15.60;99.90;;;;;;5031773;28;20481;-77
2022/10/18 09:36:04;;;;;;;8.60;7.55;;;15.60;99.90;;;;;;5027202;28;20052;-75
2022/10/18 09:38:58;;;;;;;14.50;10.45;;;15.70;99.90;;;;;;5037533;28;20037;-76
2022/10/18 09:41:43;;;;;;;;;;;15.70;99.90;;;;;;5028615;28;20103;-76
2022/10/18 09:44:23;;;;;;;10.85;8.95;;;15.70;99.90;;;;;;5029823;28;19921;-76
2022/10/18 09:46:56;;;;;;;10.30;8.38;;;15.70;99.90;;;;;;5035600;28;20087;-76
2022/10/18 09:49:28;;;;;;;8.80;7.72;;;15.80;99.90;;;;;;5035500;28;20022;-76
2022/10/18 09:51:55;;;;;;;8.98;7.50;;;15.80;99.90;;;;;;5035204;28;20033;-76
2022/10/18 09:54:31;;;;;;;9.40;7.65;;;15.90;99.90;;;;;;5036078;28;20034;-76
2022/10/18 09:57:35;;;;;;;7.88;6.68;;;15.90;99.90;;;;;;5025340;28;20036;-76
2022/10/18 10:00:05;;;;;;;7.90;7.00;;;16.00;99.90;;;;;;5034186;28;20037;-76
2022/10/18 10:02:31;;;;;;;9.27;7.00;;;16.10;99.90;;;;;;5025189;28;20254;-75
2022/10/18 10:04:56;;;;;;;6.93;6.22;;;16.20;99.90;;;;;;5023949;28;20021;-76
2022/10/18 10:07:34;;;;;;;9.23;6.85;;;16.30;99.90;;;;;;5033090;28;20522;-76
2022/10/18 10:10:33;;;;;;;9.80;6.32;;;16.40;99.90;;;;;;5034007;28;20393;-76
2022/10/18 10:13:24;;;;;;;6.70;5.85;;;16.50;99.90;;;;;;5013235;28;20533;-75
2022/10/18 10:16:00;;;;;;;6.63;5.93;;;16.50;99.90;;;;;;5021487;28;20033;-75
2022/10/18 10:18:32;;;;;;;8.30;6.00;;;16.60;99.90;;;;;;5029168;28;20034;-75
2022/10/18 10:21:02;;;;;;;10.35;6.78;;;16.60;99.90;;;;;;5026948;28;20512;-75
2022/10/18 10:23:43;;;;;;;9.40;5.93;;;16.60;99.90;;;;;;5024320;28;20057;-75
2022/10/18 10:26:23;;;;;;;6.05;5.45;;;16.70;99.90;;;;;;5023903;28;20280;-75
2022/10/18 10:28:49;;;;;;;8.65;6.57;;;16.80;99.90;;;;;;5025950;28;20037;-75
2022/10/18 10:31:29;;;;;;;6.30;5.65;;;16.80;99.90;;;;;;5028782;28;20033;-75
2022/10/18 10:33:58;;;;;;;5.32;4.72;;;16.80;99.90;;;;;;5025660;28;20022;-75
2022/10/18 10:36:24;;;;;;;7.15;5.80;;;16.80;99.90;;;;;;5026834;28;20033;-75
2022/10/18 10:39:06;;;;;;;7.72;6.93;;;16.80;99.90;;;;;;5030066;28;20105;-74
2022/10/18 10:41:32;;;;;;;5.85;5.22;;;16.80;99.90;;;;;;5036375;28;20466;-75
2022/10/18 10:44:01;;;;;;;5.13;4.63;;;16.90;99.90;;;;;;5035245;28;20036;-75
2022/10/18 10:46:35;;;;;;;4.30;3.90;;;16.90;99.90;;;;;;5034949;28;20033;-75
2022/10/18 10:49:01;;;;;;;5.43;4.57;;;16.90;99.90;;;;;;5028074;28;20163;-75
2022/10/18 10:51:37;;;;;;;5.60;5.03;;;16.90;99.90;;;;;;5030210;28;20461;-75
2022/10/18 10:54:23;;;;;;;6.15;4.82;;;16.90;99.90;;;;;;5031023;28;20036;-76
2022/10/18 10:57:12;;;;;;;4.68;4.25;;;17.00;99.90;;;;;;5027876;28;20021;-76
2022/10/18 10:59:52;;;;;;;5.43;4.82;;;16.90;99.90;;;;;;5029177;28;20045;-75
2022/10/18 11:02:28;;;;;;;7.18;5.35;;;17.00;99.90;;;;;;5028994;28;20468;-77
2022/10/18 11:04:55;;;;;;;7.05;5.68;;;17.00;99.90;;;;;;5029256;28;20027;-75
2022/10/18 11:07:35;;;;;;;6.85;5.25;;;17.00;99.90;;;;;;5027822;28;20034;-75
2022/10/18 11:10:10;;;;;;;6.72;6.03;;;17.00;99.90;;;;;;5031451;28;20106;-75
2022/10/18 11:12:48;;;;;;;6.15;5.55;;;17.10;99.90;;;;;;5025879;28;20056;-76
2022/10/18 11:15:17;;;;;;;6.88;6.18;;;17.20;99.90;;;;;;5036524;28;20029;-76
2022/10/18 11:18:06;;;;;;;7.78;6.30;;;17.40;99.90;;;;;;5032559;28;20029;-76
2022/10/18 11:20:44;;;;;;;6.43;5.72;;;17.50;99.90;;;;;;5031017;28;20115;-75
2022/10/18 11:23:14;;;;;;;9.00;5.45;;;17.60;99.90;;;;;;5028483;28;20071;-76
2022/10/18 11:26:01;;;;;;;5.95;5.18;;;17.70;99.90;;;;;;5027518;28;20030;-75
2022/10/18 11:28:35;;;;;;;6.40;5.68;;;17.90;99.90;;;;;;5028818;28;20307;-74
2022/10/18 11:31:25;;;;;;;6.78;6.05;;;18.00;99.90;;;;;;5031918;28;20041;-75
2022/10/18 11:34:33;;;;;;;6.97;6.25;;;17.90;99.90;;;;;;5029799;28;20051;-76
2022/10/18 11:37:29;;;;;;;6.55;5.95;;;17.90;99.90;;;;;;5018448;28;20645;-76
2022/10/18 11:40:35;;;;;;;13.38;6.18;;;17.70;99.90;;;;;;5028250;28;20030;-76
2022/10/18 11:43:19;;;;;;;7.43;5.57;;;17.80;99.90;;;;;;5027288;28;20041;-76
2022/10/18 11:46:02;;;;;;;6.30;5.70;;;17.90;99.90;;;;;;5024204;28;20393;-76
2022/10/18 11:48:54;;;;;;;7.53;5.40;;;18.20;99.90;;;;;;5030140;28;20021;-76
2022/10/18 11:51:19;;;;;;;6.50;4.97;;;18.40;99.90;;;;;;5024322;28;20025;-76
2022/10/18 11:54:20;;;;;;;5.30;4.80;;;18.50;99.90;;;;;;5023339;28;20516;-76
2022/10/18 11:57:06;;;;;;;5.93;5.35;;;18.70;99.90;;;;;;5031955;28;20043;-76
2022/10/18 11:59:47;;;;;;;7.68;6.13;;;18.80;99.90;;;;;;5028802;28;20099;-76
2022/10/18 12:02:56;;;;;;;7.80;5.80;;;19.00;99.90;;;;;;5027316;28;20029;-76
2022/10/18 12:05:23;;;;;;;6.07;5.47;;;19.00;99.90;;;;;;5037422;28;20537;-76
2022/10/18 12:07:51;;;;;;;6.07;4.90;;;19.00;99.90;;;;;;5025118;28;20017;-76
2022/10/18 12:10:19;;;;;;;4.25;3.85;;;19.10;99.90;;;;;;5030497;28;20116;-76
2022/10/18 12:12:55;;;;;;;5.68;4.30;;;19.40;99.90;;;;;;5027223;28;20029;-74
2022/10/18 12:15:27;;;;;;;7.10;4.65;;;19.50;99.90;;;;;;5021320;28;21224;-74
2022/10/18 12:17:58;;;;;;;9.52;5.38;;;19.30;99.90;;;;;;5025784;28;20021;-74
2022/10/18 12:20:35;;;;;;;6.30;5.30;;;19.20;99.90;;;;;;5030964;28;20447;-74
2022/10/18 12:23:21;;;;;;;5.13;4.32;;;19.10;99.90;;;;;;5040177;28;20028;-75
2022/10/18 12:25:54;;;;;;;5.85;4.80;;;19.30;99.90;;;;;;5035147;28;20029;-74
2022/10/18 12:28:55;;;;;;;6.27;4.90;;;19.50;99.90;;;;;;5026663;28;20378;-74
2022/10/18 12:31:26;;;;;;;4.88;3.80;;;19.90;99.90;;;;;;5034953;28;20558;-74
2022/10/18 12:34:21;;;;;;;4.88;3.33;;;20.00;99.90;;;;;;5028478;28;20052;-74
2022/10/18 12:37:09;;;;;;;3.63;3.33;;;20.20;99.90;;;;;;5032920;28;20058;-75
2022/10/18 12:39:43;;;;;;;5.85;3.33;;;20.10;99.90;;;;;;5036508;28;20579;-74
2022/10/18 12:42:27;;;;;;;4.43;3.40;;;19.90;99.90;;;;;;5034869;28;20047;-74
2022/10/18 12:45:16;;;;;;;4.05;3.55;;;19.70;99.90;;;;;;5031836;28;20105;-74
2022/10/18 12:47:42;;;;;;;4.10;3.70;;;19.50;99.90;;;;;;5028029;28;20561;-74
2022/10/18 12:50:30;;;;;;;4.35;3.97;;;19.30;99.90;;;;;;5041087;28;20175;-75
2022/10/18 12:53:13;;;;;;;3.92;3.53;;;19.20;99.90;;;;;;5026305;28;20037;-75
2022/10/18 12:55:41;;;;;;;3.95;3.63;;;19.10;99.90;;;;;;5031759;28;20099;-75
2022/10/18 12:58:13;;;;;;;4.20;3.50;;;19.10;99.90;;;;;;5035683;28;20080;-75
2022/10/18 13:00:41;;;;;;;3.67;3.38;;;19.00;99.90;;;;;;5039910;28;20057;-75
2022/10/18 13:03:13;;;;;;;3.38;3.08;;;19.20;99.90;;;;;;5026277;28;20099;-76